Florian Winkler

Scout - St. Pauli
6 Mai 2027
Donnerstag
Verarbeitung

Persönlichkeit

Anpassungsfähigkeit (1) Ehrgeiz (7) Kontroverse (11) Loyalität (15) Druck (6) Professionalität (5) Fairness (16) Temperament (2)

Profil

Trainerstil Demokratisch
Lizenz Kontinentale C
Entschlossenheit 7
Menschenführung 7
Motivation 12
Disziplin 11
Arbeitszufriedenheit
100%
Ermüdung
0%
Rolle Scout
Gehalt 36.4K p/W
Vertrag 14.03.2029

Leistung

Verhalten Gut
Trainingseffektivität
40%
Spielerentwicklung
65%
Verletzungsprävention
55%
Taktische Umsetzung
35%

Letzte Ereignisse

Spieler begutachtet 7T her
Nahm an einer Scouting-Besprechung teil 7T her
Spieler begutachtet 7T her
Spieler begutachtet 7T her
Spieler begutachtet 7T her
Spieler begutachtet 14T her
Spieler begutachtet 14T her
Spieler begutachtet 14T her

Aktuell beobachtet

59
Spieler Verein Status Fähigkeit Vertrauen Beobachtet Zuletzt beobachtet Letzte Stimme
Lautaro Herrera Estudiantes Aktiv 89 / 104 40% 2 03.05.2027 -
Enrique Maza Atlético Tucumán Aktiv 84 / 97 40% 1 03.05.2027 -
Jeremías Martinet River Plate Aktiv 118 / 113 40% 2 02.05.2027 -
Andrew Rick Philadelphia Union Aktiv 112 / 101 40% 1 02.05.2027 -
Andreas Wober Mattersburg Aktiv 85 / 94 40% 1 28.04.2027 -
Salko Hamzić Red Bull Salzburg Aktiv 121 / 119 40% 1 28.04.2027 -
Simon Caillet Sion Aktiv 93 / 92 40% 2 27.04.2027 -
Giovanni Stellato Guidonia Montecelio Aktiv 78 / 102 40% 1 27.04.2027 -
Fabricio Díaz San Lorenzo Aktiv 85 / 93 40% 1 26.04.2027 -
Robert Cook Castellón Aktiv 91 / 99 40% 1 26.04.2027 -
Diego Mina Lugano Aktiv 84 / 100 40% 2 24.04.2027 -
Leon Klanac Bayern Munich Aktiv 98 / 109 40% 1 24.04.2027 -
Elis Bishesari IFK Goteborg Aktiv 142 / 115 40% 2 21.04.2027 -
Kornel Miściur Liverpool Aktiv 101 / 105 40% 2 21.04.2027 -
Yevgen Morozov Zurich Aktiv 95 / 103 40% 2 20.04.2027 -
Elyh Harrison Manchester United Aktiv 86 / 93 40% 1 20.04.2027 -
Eliás Montiel Pachuca Aktiv 113 / 119 40% 1 19.04.2027 -
Noël Aséko Eintracht Frankfurt Aktiv 119 / 120 40% 1 19.04.2027 -
Ibrahim Maza Bayer Leverkusen Aktiv 135 / 141 40% 2 17.04.2027 -
Riley Owen Trento Aktiv 106 / 97 40% 1 17.04.2027 -
Finn Jeltsch VfB Stuttgart Aktiv 143 / 133 40% 1 15.04.2027 -
João Simões Sporting CP Aktiv 129 / 135 40% 1 15.04.2027 -
Percy Jali Free State Stars Aktiv 83 / 95 40% 1 14.04.2027 -
Jon Garro Real Sociedad Aktiv 83 / 87 40% 1 14.04.2027 -
Izan Merino Málaga Aktiv 118 / 131 40% 1 12.04.2027 -
Kazunari Kita Real Sociedad Aktiv 90 / 96 40% 1 12.04.2027 -
Kees Smit AZ Aktiv 144 / 144 40% 1 11.04.2027 -
Pablo Lara Pumas UNAM Aktiv 106 / 141 40% 1 09.04.2027 -
Luca Neu Utrecht Aktiv 102 / 92 40% 1 07.04.2027 -
Jobe Bellingham Köln Aktiv 126 / 139 40% 1 07.04.2027 -
Kevin Vazquez Cruz Azul Aktiv 149 / 147 40% 1 07.04.2027 -
Luca Martelli Forli Aktiv 96 / 103 40% 1 30.03.2027 -
Didier Mercier Chamois Niortais Aktiv 118 / 108 40% 1 30.03.2027 -
Matías Molina Independiente Aktiv 106 / 102 40% 1 29.03.2027 -
Tommaso Orsini Sambenedettese Aktiv 103 / 103 40% 1 29.03.2027 -
Williams Mothiba Black Aces Aktiv 76 / 86 40% 1 27.03.2027 -
Agustín Cortez Vélez Aktiv 94 / 100 40% 1 25.03.2027 -
Lautaro Cueli San Lorenzo Aktiv 104 / 108 40% 1 25.03.2027 -
Will Lankshear Middlesbrough Aktiv 130 / 114 40% 3 31.12.2026 -
Thulani Erasmus Platinum Stars Aktiv 102 / 97 40% 1 31.12.2026 -
Jonás Luna Santa Clara Aktiv 109 / 132 40% 2 25.12.2026 -
Facinet Conté Young Boys Aktiv 108 / 122 40% 1 25.12.2026 -
Sidiki Chérif Coventry City Aktiv 116 / 120 40% 2 19.12.2026 -
Otto Stange Hamburger SV Aktiv 115 / 132 40% 1 19.12.2026 -
Francesco Pio Esposito Inter Aktiv 140 / 157 40% 1 14.12.2026 -
Harrison Ofori Liberty Professionals Aktiv 101 / 100 40% 1 01.12.2026 -
Leon Grgić Sturm Graz Aktiv 108 / 125 40% 2 23.11.2026 -
Stefanos Tzimas Brighton Aktiv 137 / 129 40% 1 20.11.2026 -
Joel Orlando Almagro Aktiv 108 / 109 40% 1 20.11.2026 -
Moctar Diop KAA Gent Aktiv 126 / 117 40% 1 18.11.2026 -
Kauã Elias Anderlecht Aktiv 120 / 129 40% 2 16.11.2026 -
David Kalokoh Ajax Aktiv 122 / 121 40% 1 15.11.2026 -
Mathys Tel Tottenham Aktiv 148 / 151 40% 1 10.11.2026 -
Adrien Llukes Sion Aktiv 89 / 92 40% 1 09.11.2026 -
Vivaldo Semedo Watford Aktiv 112 / 125 40% 1 07.11.2026 -
Axel Kayombo Sturm Graz Aktiv 99 / 109 40% 1 07.11.2026 -
Rogério VfL Wolfsburg Aktiv 135 / 118 55% 1 24.08.2026 -
Rico Lewis Manchester City Aktiv 158 / 149 40% 1 02.08.2026 -
Leny Yoro Manchester United Aktiv 133 / 137 40% 1 02.08.2026 -